This is the latest recevied weather packets stored in our database for station/object DG8SF-13. If no packets are shown the sender has not sent any weather packets the latest 10 day(s).
| Time | Temp. | Humidity | Pressure | Rain* | Wind** | Luminosity | Snow |
|---|---|---|---|---|---|---|---|
| 1777971053 | 18.33° C | 61% | 1007.7 hPa | 0 mm | - | - | - |
| 1777970745 | 18.33° C | 60% | 1007.8 hPa | 0 mm | - | - | - |
| 1777970429 | 18.89° C | 58% | 1007.8 hPa | 0 mm | - | - | - |
| 1777970118 | 18.33° C | 60% | 1007.8 hPa | 0 mm | - | - | - |
| 1777969806 | 20° C | 56% | 1007.8 hPa | 0 mm | - | - | - |
| 1777969496 | 19.44° C | 59% | 1007.8 hPa | 0 mm | - | - | - |
| 1777969187 | 19.44° C | 57% | 1007.8 hPa | 0 mm | - | - | - |
| 1777968869 | 20° C | 56% | 1007.8 hPa | 0 mm | - | - | - |
| 1777968557 | 18.89° C | 60% | 1007.8 hPa | 0 mm | - | - | - |
| 1777968247 | 20° C | 58% | 1007.8 hPa | 0 mm | - | - | - |
| 1777967934 | 18.89° C | 61% | 1007.8 hPa | 0 mm | - | - | - |
| 1777967623 | 18.33° C | 63% | 1008 hPa | 0 mm | - | - | - |
| 1777967309 | 17.78° C | 66% | 1008 hPa | 0 mm | - | - | - |
| 1777966999 | 16.67° C | 69% | 1008.1 hPa | 0 mm | - | - | - |
| 1777966689 | 16.67° C | 66% | 1008.2 hPa | 0 mm | - | - | - |
| 1777966372 | 16.67° C | 68% | 1008.3 hPa | 0 mm | - | - | - |
| 1777966061 | 16.67° C | 68% | 1008.2 hPa | 0 mm | - | - | - |
| 1777965759 | 17.22° C | 66% | 1008.3 hPa | 0 mm | - | - | - |
| 1777965436 | 17.78° C | 66% | 1008.2 hPa | 0 mm | - | - | - |
| 1777965124 | 17.78° C | 66% | 1008.3 hPa | 0 mm | - | - | - |
| 1777964814 | 17.22° C | 68% | 1008.3 hPa | 0 mm | - | - | - |
| 1777964504 | 16.67° C | 71% | 1008.4 hPa | 0 mm | - | - | - |
| 1777964191 | 15.56° C | 74% | 1008.4 hPa | 0 mm | - | - | - |
| 1777963879 | 15.56° C | 75% | 1008.5 hPa | 0 mm | - | - | - |
| 1777963565 | 15.56° C | 74% | 1008.6 hPa | 0 mm | - | - | - |
* Rain latest hour (hover to see other rain measurements)
** Current wind speed in m/s (hover to see current wind gust speed)